sensor_id;sensor_type;location;lat;lon;timestamp;pressure;altitude;pressure_sealevel;temperature;humidity
50302;BME280;36550;50.472;19.744;2023-08-08T00:02:34;97649.39;;;15.11;85.05
50302;BME280;36550;50.472;19.744;2023-08-08T00:05:38;97650.48;;;15.12;85.18
50302;BME280;36550;50.472;19.744;2023-08-08T00:08:43;97655.34;;;15.12;85.06
50302;BME280;36550;50.472;19.744;2023-08-08T00:12:27;97659.27;;;15.13;84.94
50302;BME280;36550;50.472;19.744;2023-08-08T00:15:32;97659.21;;;15.11;85.07
50302;BME280;36550;50.472;19.744;2023-08-08T00:19:16;97662.88;;;15.10;84.82
50302;BME280;36550;50.472;19.744;2023-08-08T00:23:00;97666.48;;;15.08;84.80
50302;BME280;36550;50.472;19.744;2023-08-08T00:26:43;97670.19;;;15.06;84.72
50302;BME280;36550;50.472;19.744;2023-08-08T00:30:28;97671.98;;;15.04;84.69
50302;BME280;36550;50.472;19.744;2023-08-08T00:33:32;97673.05;;;15.03;84.62
50302;BME280;36550;50.472;19.744;2023-08-08T00:36:16;97672.84;;;15.02;84.60
50302;BME280;36550;50.472;19.744;2023-08-08T00:39:00;97677.60;;;15.02;84.59
50302;BME280;36550;50.472;19.744;2023-08-08T00:41:44;97675.12;;;15.01;84.50
50302;BME280;36550;50.472;19.744;2023-08-08T00:44:48;97676.87;;;14.99;84.39
50302;BME280;36550;50.472;19.744;2023-08-08T00:48:32;97681.22;;;14.94;84.39
50302;BME280;36550;50.472;19.744;2023-08-08T00:52:16;97683.88;;;14.89;84.34
50302;BME280;36550;50.472;19.744;2023-08-08T00:55:40;97684.55;;;14.81;84.10
50302;BME280;36550;50.472;19.744;2023-08-08T00:58:25;97686.79;;;14.76;83.91
50302;BME280;36550;50.472;19.744;2023-08-08T01:01:50;97691.87;;;14.72;83.93
50302;BME280;36550;50.472;19.744;2023-08-08T01:05:32;97693.94;;;14.67;83.82
50302;BME280;36550;50.472;19.744;2023-08-08T01:09:21;97697.96;;;14.66;83.86
50302;BME280;36550;50.472;19.744;2023-08-08T01:13:08;97701.60;;;14.66;83.89
50302;BME280;36550;50.472;19.744;2023-08-08T01:16:51;97704.35;;;14.66;83.73
50302;BME280;36550;50.472;19.744;2023-08-08T01:20:35;97701.98;;;14.64;83.61
50302;BME280;36550;50.472;19.744;2023-08-08T01:24:22;97706.70;;;14.61;83.67
50302;BME280;36550;50.472;19.744;2023-08-08T01:28:05;97710.48;;;14.56;83.46
50302;BME280;36550;50.472;19.744;2023-08-08T01:31:29;97710.23;;;14.50;83.38
50302;BME280;36550;50.472;19.744;2023-08-08T01:35:13;97707.58;;;14.46;83.20
50302;BME280;36550;50.472;19.744;2023-08-08T01:38:59;97706.70;;;14.42;83.09
50302;BME280;36550;50.472;19.744;2023-08-08T01:42:36;97709.13;;;14.36;82.88
50302;BME280;36550;50.472;19.744;2023-08-08T01:45:21;97705.34;;;14.31;83.05
50302;BME280;36550;50.472;19.744;2023-08-08T01:48:10;97708.62;;;14.27;83.02
50302;BME280;36550;50.472;19.744;2023-08-08T01:51:14;97707.40;;;14.23;82.92
50302;BME280;36550;50.472;19.744;2023-08-08T01:54:58;97707.03;;;14.19;82.58
50302;BME280;36550;50.472;19.744;2023-08-08T01:58:41;97710.92;;;14.17;82.68
50302;BME280;36550;50.472;19.744;2023-08-08T02:02:25;97713.63;;;14.15;82.75
50302;BME280;36550;50.472;19.744;2023-08-08T02:06:09;97715.64;;;14.09;82.54
50302;BME280;36550;50.472;19.744;2023-08-08T02:09:53;97718.84;;;14.03;82.63
50302;BME280;36550;50.472;19.744;2023-08-08T02:13:37;97718.00;;;13.98;82.40
50302;BME280;36550;50.472;19.744;2023-08-08T02:17:21;97724.60;;;13.94;82.43
50302;BME280;36550;50.472;19.744;2023-08-08T02:21:05;97729.88;;;13.91;82.46
50302;BME280;36550;50.472;19.744;2023-08-08T02:24:29;97729.39;;;13.84;82.44
50302;BME280;36550;50.472;19.744;2023-08-08T02:27:33;97731.29;;;13.82;82.49
50302;BME280;36550;50.472;19.744;2023-08-08T02:31:18;97731.34;;;13.74;82.54
50302;BME280;36550;50.472;19.744;2023-08-08T02:35:02;97738.30;;;13.71;82.70
50302;BME280;36550;50.472;19.744;2023-08-08T02:38:46;97742.61;;;13.69;82.66
50302;BME280;36550;50.472;19.744;2023-08-08T02:42:24;97750.40;;;13.67;82.58
50302;BME280;36550;50.472;19.744;2023-08-08T02:45:09;97753.52;;;13.66;82.74
50302;BME280;36550;50.472;19.744;2023-08-08T02:47:53;97754.52;;;13.65;82.67
50302;BME280;36550;50.472;19.744;2023-08-08T02:50:37;97752.04;;;13.65;82.94
50302;BME280;36550;50.472;19.744;2023-08-08T02:53:41;97754.15;;;13.66;82.93
50302;BME280;36550;50.472;19.744;2023-08-08T02:57:25;97753.45;;;13.65;82.95
50302;BME280;36550;50.472;19.744;2023-08-08T03:01:09;97759.04;;;13.65;82.86
50302;BME280;36550;50.472;19.744;2023-08-08T03:04:53;97761.85;;;13.65;82.68
50302;BME280;36550;50.472;19.744;2023-08-08T03:08:25;97768.91;;;13.63;82.63
50302;BME280;36550;50.472;19.744;2023-08-08T03:12:09;97775.39;;;13.61;82.67
50302;BME280;36550;50.472;19.744;2023-08-08T03:15:52;97777.34;;;13.60;82.78
50302;BME280;36550;50.472;19.744;2023-08-08T03:19:36;97781.52;;;13.61;83.01
50302;BME280;36550;50.472;19.744;2023-08-08T03:23:20;97785.57;;;13.63;82.90
50302;BME280;36550;50.472;19.744;2023-08-08T03:27:04;97792.91;;;13.68;82.74
50302;BME280;36550;50.472;19.744;2023-08-08T03:30:48;97797.94;;;13.72;82.62
50302;BME280;36550;50.472;19.744;2023-08-08T03:34:12;97804.38;;;13.76;82.62
50302;BME280;36550;50.472;19.744;2023-08-08T03:36:57;97806.92;;;13.75;82.60
50302;BME280;36550;50.472;19.744;2023-08-08T03:39:41;97804.54;;;13.76;82.68
50302;BME280;36550;50.472;19.744;2023-08-08T03:42:25;97810.14;;;13.76;82.63
50302;BME280;36550;50.472;19.744;2023-08-08T03:45:09;97807.09;;;13.78;82.73
50302;BME280;36550;50.472;19.744;2023-08-08T03:47:54;97810.73;;;13.81;82.57
50302;BME280;36550;50.472;19.744;2023-08-08T03:50:38;97812.59;;;13.82;82.59
50302;BME280;36550;50.472;19.744;2023-08-08T03:53:43;97818.08;;;13.83;82.51
50302;BME280;36550;50.472;19.744;2023-08-08T03:57:27;97826.99;;;13.85;82.39
50302;BME280;36550;50.472;19.744;2023-08-08T04:01:11;97831.16;;;13.87;82.58
50302;BME280;36550;50.472;19.744;2023-08-08T04:04:56;97832.53;;;13.88;82.44
50302;BME280;36550;50.472;19.744;2023-08-08T04:08:40;97838.25;;;13.91;82.30
50302;BME280;36550;50.472;19.744;2023-08-08T04:12:24;97843.56;;;13.90;81.91
50302;BME280;36550;50.472;19.744;2023-08-08T04:16:08;97847.04;;;13.85;81.81
50302;BME280;36550;50.472;19.744;2023-08-08T04:19:52;97853.45;;;13.81;82.00
50302;BME280;36550;50.472;19.744;2023-08-08T04:23:36;97861.10;;;13.81;82.08
50302;BME280;36550;50.472;19.744;2023-08-08T04:27:00;97862.33;;;13.79;81.97
50302;BME280;36550;50.472;19.744;2023-08-08T04:29:44;97867.80;;;13.78;81.90
50302;BME280;36550;50.472;19.744;2023-08-08T04:32:48;97862.52;;;13.78;81.90
50302;BME280;36550;50.472;19.744;2023-08-08T04:35:53;97860.94;;;13.78;81.95
50302;BME280;36550;50.472;19.744;2023-08-08T04:38:37;97864.70;;;13.80;82.00
50302;BME280;36550;50.472;19.744;2023-08-08T04:41:21;97863.33;;;13.84;82.16
50302;BME280;36550;50.472;19.744;2023-08-08T04:44:25;97866.15;;;13.90;82.25
50302;BME280;36550;50.472;19.744;2023-08-08T04:47:44;97864.23;;;13.97;82.36
50302;BME280;36550;50.472;19.744;2023-08-08T04:50:36;97868.73;;;14.04;82.41
50302;BME280;36550;50.472;19.744;2023-08-08T04:53:40;97871.76;;;14.11;82.27
50302;BME280;36550;50.472;19.744;2023-08-08T04:57:24;97876.81;;;14.29;82.25
50302;BME280;36550;50.472;19.744;2023-08-08T05:00:48;97880.54;;;14.53;82.53
50302;BME280;36550;50.472;19.744;2023-08-08T05:04:32;97882.37;;;14.79;82.52
50302;BME280;36550;50.472;19.744;2023-08-08T05:08:16;97891.88;;;14.98;82.20
50302;BME280;36550;50.472;19.744;2023-08-08T05:11:42;97900.10;;;15.10;81.76
50302;BME280;36550;50.472;19.744;2023-08-08T05:15:07;97903.11;;;15.15;81.21
50302;BME280;36550;50.472;19.744;2023-08-08T05:18:45;97908.41;;;15.18;80.87
50302;BME280;36550;50.472;19.744;2023-08-08T05:21:53;97911.89;;;15.24;80.71
50302;BME280;36550;50.472;19.744;2023-08-08T05:25:21;97919.02;;;15.24;80.39
50302;BME280;36550;50.472;19.744;2023-08-08T05:28:46;97921.83;;;15.27;80.33
50302;BME280;36550;50.472;19.744;2023-08-08T05:32:11;97923.98;;;15.33;80.05
50302;BME280;36550;50.472;19.744;2023-08-08T05:35:30;97925.34;;;15.36;79.73
50302;BME280;36550;50.472;19.744;2023-08-08T05:38:55;97925.13;;;15.42;79.33
50302;BME280;36550;50.472;19.744;2023-08-08T05:42:27;97928.81;;;15.46;79.36
50302;BME280;36550;50.472;19.744;2023-08-08T05:45:31;97930.18;;;15.50;79.21
50302;BME280;36550;50.472;19.744;2023-08-08T05:48:56;97930.49;;;15.55;78.99
50302;BME280;36550;50.472;19.744;2023-08-08T05:52:24;97933.42;;;15.66;79.11
50302;BME280;36550;50.472;19.744;2023-08-08T05:55:28;97932.30;;;15.76;79.19
50302;BME280;36550;50.472;19.744;2023-08-08T05:59:12;97931.20;;;15.91;78.94
50302;BME280;36550;50.472;19.744;2023-08-08T06:02:30;97930.84;;;16.02;78.47
50302;BME280;36550;50.472;19.744;2023-08-08T06:05:34;97931.61;;;16.09;78.24
50302;BME280;36550;50.472;19.744;2023-08-08T06:08:58;97927.86;;;16.16;78.01
50302;BME280;36550;50.472;19.744;2023-08-08T06:12:24;97922.70;;;16.31;78.50
50302;BME280;36550;50.472;19.744;2023-08-08T06:15:08;97924.30;;;16.40;77.56
50302;BME280;36550;50.472;19.744;2023-08-08T06:18:53;97923.87;;;16.49;77.05
50302;BME280;36550;50.472;19.744;2023-08-08T06:22:31;97927.77;;;16.60;76.33
50302;BME280;36550;50.472;19.744;2023-08-08T06:25:35;97930.32;;;16.68;76.51
50302;BME280;36550;50.472;19.744;2023-08-08T06:29:06;97928.14;;;16.69;76.05
50302;BME280;36550;50.472;19.744;2023-08-08T06:31:55;97931.46;;;16.70;75.54
50302;BME280;36550;50.472;19.744;2023-08-08T06:35:13;97929.68;;;16.75;75.53
50302;BME280;36550;50.472;19.744;2023-08-08T06:38:00;97929.61;;;16.78;75.20
50302;BME280;36550;50.472;19.744;2023-08-08T06:41:05;97930.36;;;16.79;75.03
50302;BME280;36550;50.472;19.744;2023-08-08T06:44:33;97928.01;;;16.84;74.14
50302;BME280;36550;50.472;19.744;2023-08-08T06:48:11;97929.67;;;16.87;74.06
50302;BME280;36550;50.472;19.744;2023-08-08T06:51:55;97933.16;;;16.89;74.18
50302;BME280;36550;50.472;19.744;2023-08-08T06:55:14;97929.62;;;16.94;74.51
50302;BME280;36550;50.472;19.744;2023-08-08T06:57:58;97921.61;;;17.01;74.37
50302;BME280;36550;50.472;19.744;2023-08-08T07:00:42;97919.09;;;17.09;73.96
50302;BME280;36550;50.472;19.744;2023-08-08T07:03:26;97917.48;;;17.12;73.83
50302;BME280;36550;50.472;19.744;2023-08-08T07:06:34;97917.04;;;17.15;73.45
50302;BME280;36550;50.472;19.744;2023-08-08T07:09:54;97917.02;;;17.23;73.46
50302;BME280;36550;50.472;19.744;2023-08-08T07:13:18;97921.00;;;17.27;72.98
50302;BME280;36550;50.472;19.744;2023-08-08T07:16:05;97920.27;;;17.28;72.44
50302;BME280;36550;50.472;19.744;2023-08-08T07:19:16;97922.67;;;17.26;71.39
50302;BME280;36550;50.472;19.744;2023-08-08T07:23:00;97923.85;;;17.24;71.22
50302;BME280;36550;50.472;19.744;2023-08-08T07:26:44;97920.06;;;17.26;70.63
50302;BME280;36550;50.472;19.744;2023-08-08T07:30:29;97926.79;;;17.27;70.76
50302;BME280;36550;50.472;19.744;2023-08-08T07:33:52;97921.87;;;17.27;70.23
50302;BME280;36550;50.472;19.744;2023-08-08T07:37:24;97919.09;;;17.39;70.09
50302;BME280;36550;50.472;19.744;2023-08-08T07:41:08;97923.45;;;17.60;69.36
50302;BME280;36550;50.472;19.744;2023-08-08T07:44:14;97921.41;;;17.71;69.42
50302;BME280;36550;50.472;19.744;2023-08-08T07:47:58;97923.73;;;17.77;69.53
50302;BME280;36550;50.472;19.744;2023-08-08T07:51:22;97919.56;;;17.79;68.89
50302;BME280;36550;50.472;19.744;2023-08-08T07:54:45;97922.70;;;17.84;69.01
50302;BME280;36550;50.472;19.744;2023-08-08T07:58:31;97925.11;;;17.89;68.90
50302;BME280;36550;50.472;19.744;2023-08-08T08:02:13;97927.82;;;17.93;68.28
50302;BME280;36550;50.472;19.744;2023-08-08T08:05:32;97929.88;;;18.03;68.48
50302;BME280;36550;50.472;19.744;2023-08-08T08:08:59;97924.80;;;18.15;68.34
50302;BME280;36550;50.472;19.744;2023-08-08T08:12:44;97923.16;;;18.22;67.97
50302;BME280;36550;50.472;19.744;2023-08-08T08:16:08;97926.17;;;18.09;66.16
50302;BME280;36550;50.472;19.744;2023-08-08T08:19:51;97925.17;;;17.87;64.80
50302;BME280;36550;50.472;19.744;2023-08-08T08:23:35;97928.02;;;17.78;66.09
50302;BME280;36550;50.472;19.744;2023-08-08T08:27:00;97921.71;;;17.97;67.18
50302;BME280;36550;50.472;19.744;2023-08-08T08:30:44;97916.96;;;18.21;66.64
50302;BME280;36550;50.472;19.744;2023-08-08T08:34:28;97912.31;;;18.46;66.64
50302;BME280;36550;50.472;19.744;2023-08-08T08:37:52;97916.30;;;18.68;65.96
50302;BME280;36550;50.472;19.744;2023-08-08T08:40:38;97918.45;;;18.73;65.46
50302;BME280;36550;50.472;19.744;2023-08-08T08:43:44;97924.55;;;18.73;65.26
50302;BME280;36550;50.472;19.744;2023-08-08T08:47:28;97925.21;;;18.72;64.90
50302;BME280;36550;50.472;19.744;2023-08-08T08:50:54;97915.98;;;18.73;64.98
50302;BME280;36550;50.472;19.744;2023-08-08T08:54:19;97912.75;;;18.73;64.07
50302;BME280;36550;50.472;19.744;2023-08-08T08:58:03;97916.31;;;18.74;63.90
50302;BME280;36550;50.472;19.744;2023-08-08T09:01:26;97914.98;;;18.81;64.06
50302;BME280;36550;50.472;19.744;2023-08-08T09:04:51;97916.22;;;18.80;62.53
50302;BME280;36550;50.472;19.744;2023-08-08T09:08:35;97918.60;;;18.77;62.12
50302;BME280;36550;50.472;19.744;2023-08-08T09:12:19;97922.55;;;18.75;61.85
50302;BME280;36550;50.472;19.744;2023-08-08T09:15:31;97923.02;;;18.73;61.20
50302;BME280;36550;50.472;19.744;2023-08-08T09:18:55;97919.08;;;18.70;61.55
50302;BME280;36550;50.472;19.744;2023-08-08T09:22:39;97910.40;;;18.60;61.40
50302;BME280;36550;50.472;19.744;2023-08-08T09:25:43;97908.20;;;18.54;61.83
50302;BME280;36550;50.472;19.744;2023-08-08T09:29:27;97901.20;;;18.50;61.90
50302;BME280;36550;50.472;19.744;2023-08-08T09:32:51;97906.29;;;18.55;61.88
50302;BME280;36550;50.472;19.744;2023-08-08T09:35:55;97908.81;;;18.60;62.22
50302;BME280;36550;50.472;19.744;2023-08-08T09:39:39;97914.34;;;18.66;62.24
50302;BME280;36550;50.472;19.744;2023-08-08T09:43:24;97915.54;;;18.79;63.08
50302;BME280;36550;50.472;19.744;2023-08-08T09:47:11;97904.80;;;18.93;63.35
50302;BME280;36550;50.472;19.744;2023-08-08T09:50:54;97917.98;;;19.00;63.27
50302;BME280;36550;50.472;19.744;2023-08-08T09:54:38;97928.55;;;18.89;61.45
50302;BME280;36550;50.472;19.744;2023-08-08T09:58:02;97933.02;;;18.54;59.97
50302;BME280;36550;50.472;19.744;2023-08-08T10:01:46;97936.86;;;18.17;61.85
50302;BME280;36550;50.472;19.744;2023-08-08T10:05:30;97937.09;;;18.04;63.09
50302;BME280;36550;50.472;19.744;2023-08-08T10:09:14;97934.23;;;17.95;62.90
50302;BME280;36550;50.472;19.744;2023-08-08T10:12:56;97931.91;;;17.90;63.37
50302;BME280;36550;50.472;19.744;2023-08-08T10:16:43;97923.69;;;17.88;63.58
50302;BME280;36550;50.472;19.744;2023-08-08T10:20:27;97920.27;;;17.79;63.77
50302;BME280;36550;50.472;19.744;2023-08-08T10:24:32;97923.50;;;17.69;63.54
50302;BME280;36550;50.472;19.744;2023-08-08T10:28:12;97920.61;;;17.62;63.57
50302;BME280;36550;50.472;19.744;2023-08-08T10:32:02;97918.92;;;17.56;63.36
50302;BME280;36550;50.472;19.744;2023-08-08T10:35:37;97922.40;;;17.48;63.85
50302;BME280;36550;50.472;19.744;2023-08-08T10:39:21;97926.11;;;17.42;64.07
50302;BME280;36550;50.472;19.744;2023-08-08T10:43:11;97915.39;;;17.39;64.63
50302;BME280;36550;50.472;19.744;2023-08-08T10:46:56;97912.75;;;17.36;64.90
50302;BME280;36550;50.472;19.744;2023-08-08T10:50:43;97905.64;;;17.36;65.33
50302;BME280;36550;50.472;19.744;2023-08-08T10:54:27;97901.41;;;17.35;65.39
50302;BME280;36550;50.472;19.744;2023-08-08T10:58:14;97896.36;;;17.37;65.86
50302;BME280;36550;50.472;19.744;2023-08-08T11:01:59;97892.95;;;17.44;66.43
50302;BME280;36550;50.472;19.744;2023-08-08T11:05:37;97890.36;;;17.52;66.40
50302;BME280;36550;50.472;19.744;2023-08-08T11:09:21;97893.48;;;17.63;66.06
50302;BME280;36550;50.472;19.744;2023-08-08T11:13:12;97895.57;;;17.75;66.38
50302;BME280;36550;50.472;19.744;2023-08-08T11:16:56;97893.66;;;17.90;66.06
50302;BME280;36550;50.472;19.744;2023-08-08T11:20:34;97899.98;;;18.03;66.49
50302;BME280;36550;50.472;19.744;2023-08-08T11:24:17;97903.38;;;18.20;65.85
50302;BME280;36550;50.472;19.744;2023-08-08T11:28:02;97899.60;;;18.20;65.17
50302;BME280;36550;50.472;19.744;2023-08-08T11:31:46;97901.33;;;18.14;65.68
50302;BME280;36550;50.472;19.744;2023-08-08T11:35:30;97900.42;;;18.06;66.01
50302;BME280;36550;50.472;19.744;2023-08-08T11:39:15;97895.51;;;18.04;66.39
50302;BME280;36550;50.472;19.744;2023-08-08T11:42:59;97900.49;;;18.05;66.15
50302;BME280;36550;50.472;19.744;2023-08-08T11:46:46;97908.98;;;18.04;66.25
50302;BME280;36550;50.472;19.744;2023-08-08T11:49:39;97924.61;;;18.04;66.81
50302;BME280;36550;50.472;19.744;2023-08-08T11:52:24;97929.77;;;17.95;67.33
50302;BME280;36550;50.472;19.744;2023-08-08T11:56:08;97920.58;;;17.74;67.66
50302;BME280;36550;50.472;19.744;2023-08-08T11:59:52;97910.32;;;17.67;67.95
50302;BME280;36550;50.472;19.744;2023-08-08T12:03:40;97910.39;;;17.75;68.59
50302;BME280;36550;50.472;19.744;2023-08-08T12:07:24;97913.67;;;17.78;68.36
50302;BME280;36550;50.472;19.744;2023-08-08T12:11:09;97921.27;;;17.86;68.27
50302;BME280;36550;50.472;19.744;2023-08-08T12:14:38;97914.83;;;18.05;68.97
50302;BME280;36550;50.472;19.744;2023-08-08T12:18:22;97908.05;;;18.19;68.61
50302;BME280;36550;50.472;19.744;2023-08-08T12:22:05;97908.32;;;18.27;67.95
50302;BME280;36550;50.472;19.744;2023-08-08T12:25:30;97904.52;;;18.30;67.77
50302;BME280;36550;50.472;19.744;2023-08-08T12:29:14;97902.62;;;18.24;66.95
50302;BME280;36550;50.472;19.744;2023-08-08T12:32:38;97894.22;;;18.17;66.45
50302;BME280;36550;50.472;19.744;2023-08-08T12:36:04;97895.07;;;18.13;65.43
50302;BME280;36550;50.472;19.744;2023-08-08T12:39:29;97896.20;;;18.12;65.69
50302;BME280;36550;50.472;19.744;2023-08-08T12:43:13;97895.56;;;18.20;66.03
50302;BME280;36550;50.472;19.744;2023-08-08T12:46:56;97889.65;;;18.33;66.23
50302;BME280;36550;50.472;19.744;2023-08-08T12:50:41;97889.19;;;18.42;65.85
50302;BME280;36550;50.472;19.744;2023-08-08T12:54:07;97871.84;;;18.51;63.54
50302;BME280;36550;50.472;19.744;2023-08-08T12:57:34;97884.30;;;18.63;63.14
50302;BME280;36550;50.472;19.744;2023-08-08T13:01:18;97889.36;;;18.76;62.36
50302;BME280;36550;50.472;19.744;2023-08-08T13:05:03;97888.07;;;18.89;62.56
50302;BME280;36550;50.472;19.744;2023-08-08T13:08:46;97888.23;;;19.04;62.42
50302;BME280;36550;50.472;19.744;2023-08-08T13:12:30;97891.44;;;19.07;60.63
50302;BME280;36550;50.472;19.744;2023-08-08T13:15:14;97896.95;;;19.05;59.78
50302;BME280;36550;50.472;19.744;2023-08-08T13:18:59;97896.77;;;19.10;60.15
50302;BME280;36550;50.472;19.744;2023-08-08T13:22:25;97900.98;;;19.05;57.95
50302;BME280;36550;50.472;19.744;2023-08-08T13:26:10;97905.66;;;18.95;58.71
50302;BME280;36550;50.472;19.744;2023-08-08T13:29:55;97910.40;;;18.96;58.85
50302;BME280;36550;50.472;19.744;2023-08-08T13:33:39;97919.56;;;18.99;58.84
50302;BME280;36550;50.472;19.744;2023-08-08T13:37:24;97913.21;;;19.00;57.71
50302;BME280;36550;50.472;19.744;2023-08-08T13:41:03;97914.45;;;18.96;56.96
50302;BME280;36550;50.472;19.744;2023-08-08T13:44:48;97912.69;;;18.96;57.24
50302;BME280;36550;50.472;19.744;2023-08-08T13:48:33;97907.86;;;19.01;57.16
50302;BME280;36550;50.472;19.744;2023-08-08T13:52:17;97904.05;;;19.07;56.82
50302;BME280;36550;50.472;19.744;2023-08-08T13:55:46;97901.90;;;19.11;56.82
50302;BME280;36550;50.472;19.744;2023-08-08T13:59:30;97895.96;;;19.13;56.76
50302;BME280;36550;50.472;19.744;2023-08-08T14:02:36;97898.88;;;19.14;56.14
50302;BME280;36550;50.472;19.744;2023-08-08T14:06:21;97893.18;;;19.11;54.53
50302;BME280;36550;50.472;19.744;2023-08-08T14:10:06;97894.61;;;19.05;54.24
50302;BME280;36550;50.472;19.744;2023-08-08T14:13:34;97899.09;;;18.98;53.27
50302;BME280;36550;50.472;19.744;2023-08-08T14:17:18;97900.41;;;18.99;54.53
50302;BME280;36550;50.472;19.744;2023-08-08T14:21:03;97901.30;;;18.96;54.67
50302;BME280;36550;50.472;19.744;2023-08-08T14:24:28;97895.29;;;18.91;54.88
50302;BME280;36550;50.472;19.744;2023-08-08T14:27:12;97901.67;;;18.87;55.01
50302;BME280;36550;50.472;19.744;2023-08-08T14:29:57;97903.95;;;18.84;54.72
50302;BME280;36550;50.472;19.744;2023-08-08T14:32:40;97902.84;;;18.78;54.40
50302;BME280;36550;50.472;19.744;2023-08-08T14:35:45;97905.48;;;18.75;54.17
50302;BME280;36550;50.472;19.744;2023-08-08T14:39:29;97911.00;;;18.73;53.54
50302;BME280;36550;50.472;19.744;2023-08-08T14:43:14;97914.88;;;18.77;53.82
50302;BME280;36550;50.472;19.744;2023-08-08T14:46:40;97912.04;;;18.79;54.04
50302;BME280;36550;50.472;19.744;2023-08-08T14:49:44;97919.46;;;18.79;54.26
50302;BME280;36550;50.472;19.744;2023-08-08T14:53:29;97913.34;;;18.80;53.72
50302;BME280;36550;50.472;19.744;2023-08-08T14:57:13;97915.64;;;18.84;53.84
50302;BME280;36550;50.472;19.744;2023-08-08T15:00:57;97912.50;;;18.88;54.52
50302;BME280;36550;50.472;19.744;2023-08-08T15:04:21;97910.57;;;18.88;53.85
50302;BME280;36550;50.472;19.744;2023-08-08T15:07:45;97915.60;;;18.90;54.08
50302;BME280;36550;50.472;19.744;2023-08-08T15:10:50;97916.12;;;18.91;53.34
50302;BME280;36550;50.472;19.744;2023-08-08T15:14:11;97918.29;;;18.91;53.28
50302;BME280;36550;50.472;19.744;2023-08-08T15:17:15;97920.13;;;18.85;53.50
50302;BME280;36550;50.472;19.744;2023-08-08T15:20:02;97925.15;;;18.80;53.48
50302;BME280;36550;50.472;19.744;2023-08-08T15:22:47;97925.34;;;18.74;53.67
50302;BME280;36550;50.472;19.744;2023-08-08T15:25:31;97924.05;;;18.69;53.85
50302;BME280;36550;50.472;19.744;2023-08-08T15:28:16;97925.31;;;18.65;53.91
50302;BME280;36550;50.472;19.744;2023-08-08T15:31:04;97930.87;;;18.63;53.86
50302;BME280;36550;50.472;19.744;2023-08-08T15:33:48;97932.73;;;18.59;53.80
50302;BME280;36550;50.472;19.744;2023-08-08T15:36:52;97932.77;;;18.53;54.06
50302;BME280;36550;50.472;19.744;2023-08-08T15:39:38;97934.01;;;18.48;54.09
50302;BME280;36550;50.472;19.744;2023-08-08T15:42:22;97932.11;;;18.43;54.08
50302;BME280;36550;50.472;19.744;2023-08-08T15:45:26;97930.14;;;18.40;54.11
50302;BME280;36550;50.472;19.744;2023-08-08T15:48:32;97929.95;;;18.34;54.00
50302;BME280;36550;50.472;19.744;2023-08-08T15:51:17;97931.23;;;18.30;53.97
50302;BME280;36550;50.472;19.744;2023-08-08T15:54:01;97921.40;;;18.26;54.25
50302;BME280;36550;50.472;19.744;2023-08-08T15:56:49;97924.01;;;18.26;54.20
50302;BME280;36550;50.472;19.744;2023-08-08T15:59:33;97926.40;;;18.26;54.37
50302;BME280;36550;50.472;19.744;2023-08-08T16:02:17;97927.48;;;18.24;54.55
50302;BME280;36550;50.472;19.744;2023-08-08T16:05:03;97925.68;;;18.21;54.43
50302;BME280;36550;50.472;19.744;2023-08-08T16:07:49;97927.38;;;18.16;54.45
50302;BME280;36550;50.472;19.744;2023-08-08T16:10:33;97926.40;;;18.14;54.68
50302;BME280;36550;50.472;19.744;2023-08-08T16:13:17;97922.16;;;18.13;54.99
50302;BME280;36550;50.472;19.744;2023-08-08T16:16:02;97926.90;;;18.12;55.12
50302;BME280;36550;50.472;19.744;2023-08-08T16:18:47;97932.03;;;18.13;55.35
50302;BME280;36550;50.472;19.744;2023-08-08T16:21:31;97935.44;;;18.13;55.45
50302;BME280;36550;50.472;19.744;2023-08-08T16:24:16;97935.90;;;18.13;55.58
50302;BME280;36550;50.472;19.744;2023-08-08T16:27:00;97938.02;;;18.12;55.64
50302;BME280;36550;50.472;19.744;2023-08-08T16:30:07;97940.42;;;18.09;55.73
50302;BME280;36550;50.472;19.744;2023-08-08T16:32:54;97939.86;;;18.07;55.98
50302;BME280;36550;50.472;19.744;2023-08-08T16:35:38;97942.42;;;18.07;56.12
50302;BME280;36550;50.472;19.744;2023-08-08T16:38:22;97943.45;;;18.06;56.48
50302;BME280;36550;50.472;19.744;2023-08-08T16:41:07;97945.10;;;18.05;56.64
50302;BME280;36550;50.472;19.744;2023-08-08T16:44:00;97943.05;;;18.03;56.93
50302;BME280;36550;50.472;19.744;2023-08-08T16:46:45;97944.98;;;18.00;57.19
50302;BME280;36550;50.472;19.744;2023-08-08T16:49:30;97946.83;;;17.97;57.30
50302;BME280;36550;50.472;19.744;2023-08-08T16:52:17;97946.23;;;17.94;57.64
50302;BME280;36550;50.472;19.744;2023-08-08T16:55:01;97943.74;;;17.90;57.71
50302;BME280;36550;50.472;19.744;2023-08-08T16:58:05;97941.95;;;17.87;57.90
50302;BME280;36550;50.472;19.744;2023-08-08T17:00:49;97945.21;;;17.83;58.13
50302;BME280;36550;50.472;19.744;2023-08-08T17:03:34;97948.18;;;17.79;58.28
50302;BME280;36550;50.472;19.744;2023-08-08T17:06:18;97946.73;;;17.75;58.44
50302;BME280;36550;50.472;19.744;2023-08-08T17:09:02;97944.27;;;17.72;58.69
50302;BME280;36550;50.472;19.744;2023-08-08T17:11:46;97941.87;;;17.68;58.73
50302;BME280;36550;50.472;19.744;2023-08-08T17:14:30;97941.70;;;17.65;58.94
50302;BME280;36550;50.472;19.744;2023-08-08T17:17:14;97937.21;;;17.63;59.06
50302;BME280;36550;50.472;19.744;2023-08-08T17:19:59;97933.63;;;17.60;59.24
50302;BME280;36550;50.472;19.744;2023-08-08T17:22:44;97930.69;;;17.57;59.34
50302;BME280;36550;50.472;19.744;2023-08-08T17:25:28;97927.64;;;17.54;59.80
50302;BME280;36550;50.472;19.744;2023-08-08T17:28:12;97930.00;;;17.52;59.83
50302;BME280;36550;50.472;19.744;2023-08-08T17:30:57;97931.79;;;17.49;59.82
50302;BME280;36550;50.472;19.744;2023-08-08T17:33:41;97932.50;;;17.46;60.12